Time;durP1;ratioP1;P1;durP2;ratioP2;P2;SDS_P1;SDS_P2;PMS_P1;PMS_P2;Temp;Humidity;BMP_temperature;BMP_pressure;BME280_temperature;BME280_humidity;BME280_pressure;Samples;Min_cycle;Max_cycle;Signal;HPM_P1;HPM_P2
2023/10/02 00:02:41;;;;;;;11.77;4.70;;;;;;;16.19;100.00;101340.22;5002665;57;1173498;-72
2023/10/02 00:07:48;;;;;;;14.47;4.97;;;;;;;16.23;100.00;101328.76;5026312;57;1142802;-72
2023/10/02 00:12:59;;;;;;;8.97;4.50;;;;;;;16.19;100.00;101330.36;5014914;57;1142706;-73
2023/10/02 00:18:01;;;;;;;11.03;4.90;;;;;;;16.14;100.00;101332.61;4930902;58;1141007;-72
2023/10/02 00:23:06;;;;;;;14.15;4.55;;;;;;;16.10;100.00;101334.34;4979163;58;1142952;-72
2023/10/02 00:28:14;;;;;;;10.00;4.43;;;;;;;16.09;100.00;101333.98;4947335;58;1143031;-72
2023/10/02 00:33:27;;;;;;;11.05;4.85;;;;;;;15.93;100.00;101331.81;4990771;57;1142799;-72
2023/10/02 00:38:27;;;;;;;9.60;5.33;;;;;;;15.85;100.00;101327.65;4994621;57;1143042;-72
2023/10/02 00:43:35;;;;;;;14.32;5.24;;;;;;;15.90;100.00;101325.41;5015853;57;1141287;-72
2023/10/02 00:48:40;;;;;;;10.60;5.30;;;;;;;15.96;100.00;101324.87;4946543;57;1142770;-72
2023/10/02 00:53:48;;;;;;;10.77;4.90;;;;;;;15.89;100.00;101326.90;5077989;55;1142732;-72
2023/10/02 00:59:01;;;;;;;9.30;4.27;;;;;;;15.86;100.00;101327.16;5082610;56;1143058;-72
2023/10/02 01:04:10;;;;;;;13.37;3.80;;;;;;;15.90;100.00;101319.22;5011163;56;1140875;-72
2023/10/02 01:09:18;;;;;;;16.73;4.75;;;;;;;15.77;100.00;101325.63;5047877;56;1142916;-72
2023/10/02 01:19:54;;;;;;;11.50;4.37;;;;;;;15.58;100.00;101320.70;4582215;61;1143301;-72
2023/10/02 01:25:23;;;;;;;8.40;4.13;;;;;;;15.49;100.00;101310.28;4631701;61;1143375;-73
2023/10/02 01:30:18;;;;;;;12.57;5.37;;;;;;;15.43;100.00;101325.45;4557171;63;1141089;-73
2023/10/02 01:35:29;;;;;;;20.57;4.10;;;;;;;15.37;100.00;101324.67;4580632;63;1143333;-73
2023/10/02 01:40:34;;;;;;;11.63;4.90;;;;;;;15.32;100.00;101318.38;4562475;63;1143043;-73
2023/10/02 01:45:45;;;;;;;9.73;4.30;;;;;;;15.29;100.00;101325.30;4562410;62;1143116;-73
2023/10/02 01:50:50;;;;;;;13.73;3.93;;;;;;;15.22;100.00;101322.81;4844461;57;1140994;-72
2023/10/02 01:56:11;;;;;;;10.00;3.97;;;;;;;15.17;100.00;101329.48;4999713;57;1143165;-72
2023/10/02 02:01:10;;;;;;;14.30;4.53;;;;;;;15.10;100.00;101329.18;4950951;57;1143015;-72
2023/10/02 02:06:23;;;;;;;11.88;4.95;;;;;;;15.11;100.00;101329.05;4978804;56;1142967;-72
2023/10/02 02:11:34;;;;;;;12.55;4.30;;;;;;;15.22;100.00;101313.97;4975831;57;1142984;-72
2023/10/02 02:16:38;;;;;;;9.80;4.47;;;;;;;15.22;100.00;101314.82;4916903;57;1142933;-73
2023/10/02 02:21:44;;;;;;;13.13;4.67;;;;;;;15.26;100.00;101319.41;4917384;57;1141257;-72
2023/10/02 02:26:57;;;;;;;5.97;3.57;;;;;;;15.21;100.00;101321.61;4935839;57;1143019;-73
2023/10/02 02:31:57;;;;;;;14.20;3.93;;;;;;;15.12;100.00;101327.23;4914613;57;1255929;-72
2023/10/02 02:37:06;;;;;;;6.63;3.77;;;;;;;15.05;100.00;101340.21;4916488;58;1142969;-72
2023/10/02 02:42:18;;;;;;;13.33;5.57;;;;;;;15.00;100.00;101330.89;4950556;57;1150242;-73
2023/10/02 02:47:21;;;;;;;9.60;4.20;;;;;;;15.03;100.00;101316.00;5014244;57;1143261;-72
2023/10/02 02:52:32;;;;;;;8.60;4.47;;;;;;;15.10;100.00;101319.86;5069165;56;1140990;-73
2023/10/02 02:57:45;;;;;;;8.23;4.17;;;;;;;15.06;100.00;101324.59;5027006;57;1140809;-72
2023/10/02 03:02:52;;;;;;;9.07;4.20;;;;;;;15.06;100.00;101322.41;5018870;57;1140590;-72
2023/10/02 03:07:57;;;;;;;10.47;3.97;;;;;;;15.05;100.00;101324.22;4940673;56;1140712;-72
2023/10/02 03:13:03;;;;;;;9.30;5.13;;;;;;;15.06;100.00;101334.39;5031399;56;1142854;-72
2023/10/02 03:23:33;;;;;;;11.83;3.60;;;;;;;15.01;100.00;101325.45;4965554;58;1141068;-72
2023/10/02 03:28:39;;;;;;;13.50;4.27;;;;;;;14.98;100.00;101331.50;4995789;57;1142935;-72
2023/10/02 03:33:45;;;;;;;8.90;3.77;;;;;;;14.97;100.00;101325.33;5137283;55;1143039;-72
2023/10/02 03:38:51;;;;;;;9.77;4.20;;;;;;;15.02;100.00;101319.14;5169067;55;1140870;-72
2023/10/02 03:43:56;;;;;;;8.18;3.80;;;;;;;14.99;100.00;101320.73;5142495;56;1141075;-72
2023/10/02 03:49:04;;;;;;;12.97;3.57;;;;;;;15.01;100.00;101301.47;5164735;55;1140947;-72
2023/10/02 03:54:23;;;;;;;12.13;4.15;;;;;;;15.07;100.00;101301.45;5102256;56;1142926;-72
2023/10/02 03:59:32;;;;;;;9.95;4.50;;;;;;;15.12;100.00;101302.73;5150272;56;1142767;-73
2023/10/02 04:04:38;;;;;;;10.27;4.87;;;;;;;15.20;100.00;101302.11;5052979;56;1140854;-71
2023/10/02 04:09:50;;;;;;;10.70;4.80;;;;;;;15.23;100.00;101309.84;5061867;56;1142825;-72
2023/10/02 04:14:52;;;;;;;11.40;4.80;;;;;;;15.22;100.00;101309.97;5100563;56;1143070;-72
2023/10/02 04:20:05;;;;;;;13.00;4.77;;;;;;;15.14;100.00;101312.78;5106908;55;1142872;-71
2023/10/02 04:25:06;;;;;;;10.30;4.75;;;;;;;15.10;100.00;101313.19;5001852;56;1143018;-73
2023/10/02 04:40:55;;;;;;;;;;;;;;;15.08;100.00;101296.48;5043617;57;1142983;-72
2023/10/02 04:46:08;;;;;;;13.53;4.00;;;;;;;15.12;100.00;101300.07;5020768;57;978215;-72
2023/10/02 04:51:12;;;;;;;11.73;4.53;;;;;;;15.15;100.00;101301.64;5068665;56;1140876;-74
2023/10/02 05:01:42;;;;;;;12.10;5.30;;;;;;;15.06;100.00;101303.76;5045320;56;1142898;-73
2023/10/02 05:06:52;;;;;;;16.87;5.70;;;;;;;15.10;100.00;101295.88;4996238;57;1142949;-72
2023/10/02 05:11:55;;;;;;;10.27;5.33;;;;;;;15.21;100.00;101295.80;5012728;56;1142720;-74
2023/10/02 05:17:38;;;;;;;7.67;4.23;;;;;;;15.30;100.00;101306.16;4996475;56;1142873;-73
2023/10/02 05:22:27;;;;;;;9.48;4.42;;;;;;;15.24;100.00;101309.36;5083346;56;1140620;-73
2023/10/02 05:27:38;;;;;;;22.02;5.00;;;;;;;15.16;100.00;101307.33;4970581;56;1140552;-75
2023/10/02 05:32:43;;;;;;;13.47;4.77;;;;;;;15.16;100.00;101306.48;4983503;57;1143000;-75
2023/10/02 05:37:51;;;;;;;8.07;4.97;;;;;;;15.20;100.00;101300.77;5051045;56;1143077;-75
2023/10/02 05:48:07;;;;;;;11.83;4.90;;;;;;;15.20;100.00;101316.77;5031601;55;1143106;-74
2023/10/02 05:53:13;;;;;;;14.67;5.40;;;;;;;15.20;100.00;101318.09;5041555;57;1142783;-76
2023/10/02 05:58:39;;;;;;;10.40;4.87;;;;;;;15.20;100.00;101326.58;5051088;57;1143207;-75
2023/10/02 06:03:35;;;;;;;11.97;5.23;;;;;;;15.22;100.00;101335.29;5026063;57;1142922;-74
2023/10/02 06:08:41;;;;;;;18.67;5.03;;;;;;;15.21;100.00;101332.27;5192305;55;1142677;-74
2023/10/02 06:13:46;;;;;;;13.03;4.40;;;;;;;15.22;100.00;101332.14;5166380;56;1142894;-67
2023/10/02 06:19:06;;;;;;;15.47;6.33;;;;;;;15.26;100.00;101332.73;5024126;57;1142914;-68
2023/10/02 06:24:00;;;;;;;12.60;5.97;;;;;;;15.30;100.00;101336.81;5008477;58;1142991;-74
2023/10/02 06:29:16;;;;;;;7.40;4.40;;;;;;;15.32;100.00;101337.04;5053969;57;1143106;-74
2023/10/02 06:34:25;;;;;;;12.43;5.10;;;;;;;15.34;100.00;101336.42;5086143;56;1141051;-74
2023/10/02 06:39:35;;;;;;;13.88;5.35;;;;;;;15.36;100.00;101342.97;5091503;56;1143286;-75
2023/10/02 06:44:53;;;;;;;12.43;4.87;;;;;;;15.40;100.00;101340.41;5053681;57;1143102;-77
2023/10/02 06:50:21;;;;;;;15.53;5.73;;;;;;;15.41;100.00;101336.28;5025263;57;1143067;-74
2023/10/02 06:55:11;;;;;;;13.70;6.03;;;;;;;15.45;100.00;101335.02;5036457;56;1143276;-77
2023/10/02 07:00:19;;;;;;;14.70;6.20;;;;;;;15.53;100.00;101347.72;5087795;56;1143010;-76
2023/10/02 07:05:27;;;;;;;18.77;5.72;;;;;;;15.51;100.00;101346.16;5210927;56;1142881;-75
2023/10/02 07:10:42;;;;;;;16.17;6.83;;;;;;;15.54;100.00;101352.08;5144227;56;1143001;-76
2023/10/02 07:15:41;;;;;;;15.77;6.50;;;;;;;15.56;100.00;101357.31;5053541;57;1142497;-75
2023/10/02 07:20:53;;;;;;;27.20;6.97;;;;;;;15.56;100.00;101354.16;5079750;56;1142768;-75
2023/10/02 07:25:54;;;;;;;19.43;6.17;;;;;;;15.56;100.00;101358.16;5074764;56;1142837;-73
2023/10/02 07:31:00;;;;;;;25.90;7.03;;;;;;;15.58;100.00;101356.70;5055946;56;1143008;-77
2023/10/02 07:36:14;;;;;;;14.80;6.40;;;;;;;15.59;100.00;101346.36;5072603;56;1142798;-76
2023/10/02 07:41:24;;;;;;;20.20;6.77;;;;;;;15.64;100.00;101344.16;4960256;57;1142740;-75
2023/10/02 07:46:31;;;;;;;16.45;6.45;;;;;;;15.69;100.00;101350.80;4951288;57;1142726;-75
2023/10/02 07:51:36;;;;;;;19.00;7.60;;;;;;;15.80;100.00;101353.86;4997809;57;1142960;-75
2023/10/02 07:56:47;;;;;;;17.77;5.87;;;;;;;15.87;100.00;101351.53;4979621;57;1143030;-74
2023/10/02 08:01:51;;;;;;;20.90;6.67;;;;;;;15.94;100.00;101352.67;4983825;57;1143016;-76
2023/10/02 08:07:00;;;;;;;18.90;6.73;;;;;;;16.00;100.00;101352.15;4907596;57;1142987;-74
2023/10/02 08:12:04;;;;;;;18.07;5.60;;;;;;;16.06;100.00;101350.25;4900350;58;1142819;-73
2023/10/02 08:17:27;;;;;;;14.73;6.10;;;;;;;16.13;100.00;101352.27;4895155;58;1142926;-74
2023/10/02 08:22:37;;;;;;;15.83;5.90;;;;;;;16.22;100.00;101354.61;4919958;58;1143066;-74
2023/10/02 08:27:57;;;;;;;17.40;5.75;;;;;;;16.26;100.00;101357.37;4901981;58;1142586;-73
2023/10/02 08:33:19;;;;;;;21.77;6.63;;;;;;;16.33;100.00;101350.52;4897560;57;1142925;-73
2023/10/02 08:38:25;;;;;;;18.63;6.77;;;;;;;16.36;100.00;101344.04;4962217;57;1142983;-73
2023/10/02 08:43:44;;;;;;;11.63;5.65;;;;;;;16.45;100.00;101344.58;5072219;57;1143046;-74
2023/10/02 08:48:56;;;;;;;18.00;5.87;;;;;;;16.52;100.00;101348.37;5136449;56;1142956;-72
2023/10/02 08:54:05;;;;;;;14.37;6.03;;;;;;;16.58;100.00;101352.33;5069944;56;1142789;-77
2023/10/02 08:59:18;;;;;;;19.37;6.20;;;;;;;16.61;100.00;101347.56;5077707;56;1142859;-73
2023/10/02 09:14:42;;;;;;;10.77;5.07;;;;;;;16.78;100.00;101331.39;5080413;57;1142856;-73
2023/10/02 09:20:03;;;;;;;11.40;5.80;;;;;;;16.91;100.00;101327.95;5106100;56;1142822;-75
2023/10/02 09:25:12;;;;;;;13.50;4.90;;;;;;;17.01;100.00;101329.27;5054094;57;1143117;-73
2023/10/02 09:30:36;;;;;;;14.13;5.70;;;;;;;17.12;100.00;101321.95;5087293;56;1142627;-73
2023/10/02 09:35:32;;;;;;;20.10;6.43;;;;;;;17.28;100.00;101321.86;4999767;57;1142863;-72
2023/10/02 09:41:14;;;;;;;16.50;6.27;;;;;;;17.50;100.00;101308.19;5064667;56;1142929;-72
2023/10/02 09:46:05;;;;;;;24.55;11.33;;;;;;;17.71;100.00;101311.55;4978919;57;1142990;-74
2023/10/02 09:51:08;;;;;;;15.40;6.43;;;;;;;17.89;100.00;101297.72;5017760;58;1145022;-73
2023/10/02 09:56:17;;;;;;;12.43;5.57;;;;;;;18.20;100.00;101293.41;5022607;56;1142834;-74
2023/10/02 10:06:36;;;;;;;11.78;4.45;;;;;;;18.85;100.00;101283.42;4956681;57;1142927;-73
2023/10/02 10:11:38;;;;;;;11.83;5.25;;;;;;;19.06;100.00;101271.03;4972358;56;1143243;-72
2023/10/02 10:16:44;;;;;;;12.30;6.45;;;;;;;19.49;100.00;101270.16;5027467;57;1142796;-73
2023/10/02 10:22:10;;;;;;;13.28;5.65;;;;;;;19.49;100.00;101270.16;5118706;56;1143038;-73
2023/10/02 10:27:07;;;;;;;14.70;6.28;;;;;;;19.61;100.00;101271.10;5029360;56;1142773;-72
2023/10/02 10:32:23;;;;;;;14.95;6.10;;;;;;;19.74;100.00;101263.11;5112587;56;1142701;-75
2023/10/02 10:37:49;;;;;;;14.17;6.63;;;;;;;19.84;100.00;101257.98;5117953;56;1142801;-73
2023/10/02 10:43:00;;;;;;;14.07;6.30;;;;;;;20.11;100.00;101254.72;5117522;56;1143012;-74
2023/10/02 10:48:19;;;;;;;18.30;5.87;;;;;;;20.26;100.00;101262.48;5118430;56;1142815;-72
2023/10/02 10:53:26;;;;;;;17.17;6.97;;;;;;;20.41;100.00;101258.69;5083018;56;1142941;-74
2023/10/02 10:58:35;;;;;;;16.50;6.65;;;;;;;20.45;100.00;101242.58;5045264;57;1143029;-75
2023/10/02 11:03:41;;;;;;;18.02;6.53;;;;;;;20.55;100.00;101244.10;5118362;57;1143069;-75
2023/10/02 11:09:16;;;;;;;16.60;6.72;;;;;;;20.66;100.00;101234.86;5118643;56;1142948;-75
2023/10/02 11:14:20;;;;;;;13.08;6.37;;;;;;;20.79;100.00;101228.48;5113825;56;1143073;-74
2023/10/02 11:19:34;;;;;;;24.60;7.72;;;;;;;21.01;100.00;101234.53;5052938;56;1142860;-75
2023/10/02 11:24:34;;;;;;;17.82;7.15;;;;;;;21.26;100.00;101219.72;5098424;56;1142909;-76
2023/10/02 11:29:45;;;;;;;28.00;8.25;;;;;;;21.47;96.88;101217.33;5081921;57;1142759;-76
2023/10/02 11:34:59;;;;;;;18.00;6.58;;;;;;;21.63;94.65;101212.40;5118586;57;1140785;-73
2023/10/02 11:40:00;;;;;;;14.70;7.85;;;;;;;21.71;92.05;101211.84;5118001;56;1140673;-78
2023/10/02 11:45:07;;;;;;;20.72;8.08;;;;;;;21.76;91.54;101208.64;5119074;56;1140956;-78
2023/10/02 11:50:15;;;;;;;19.12;8.05;;;;;;;21.79;89.09;101204.25;5137484;56;1141003;-74
2023/10/02 11:55:23;;;;;;;21.15;8.98;;;;;;;21.81;89.36;101203.58;5159041;55;1140730;-73
2023/10/02 12:00:28;;;;;;;21.07;8.17;;;;;;;21.74;89.43;101203.93;5098537;56;1140939;-73
2023/10/02 12:05:36;;;;;;;14.75;7.25;;;;;;;21.64;89.11;101199.27;5098227;56;1140853;-74
2023/10/02 12:10:42;;;;;;;17.45;7.62;;;;;;;21.60;88.84;101195.23;5051702;56;1140762;-72
2023/10/02 12:15:49;;;;;;;14.87;8.33;;;;;;;21.53;86.97;101194.27;4990284;57;1140821;-70
2023/10/02 12:20:56;;;;;;;17.73;8.23;;;;;;;21.43;86.32;101192.27;4984353;56;1141065;-73
2023/10/02 12:26:04;;;;;;;17.12;8.70;;;;;;;21.32;86.06;101188.95;5034279;56;1140673;-71
2023/10/02 12:31:15;;;;;;;18.70;7.95;;;;;;;21.26;87.92;101190.97;5036549;56;1140744;-71
2023/10/02 12:36:23;;;;;;;29.90;10.60;;;;;;;21.21;85.26;101192.52;5019319;57;1183954;-71
2023/10/02 12:41:30;;;;;;;26.15;9.23;;;;;;;21.16;86.76;101186.27;5098637;56;1142980;-70
2023/10/02 12:46:50;;;;;;;22.45;8.95;;;;;;;21.22;88.32;101182.09;5162567;55;1141014;-71
2023/10/02 12:51:54;;;;;;;17.25;8.75;;;;;;;21.53;89.01;101176.78;5072499;56;1141141;-71
2023/10/02 12:57:00;;;;;;;14.63;7.97;;;;;;;21.83;89.47;101165.20;5031779;56;1140738;-70
2023/10/02 13:02:07;;;;;;;20.72;7.95;;;;;;;22.07;83.67;101165.08;5073970;56;1140948;-71
2023/10/02 13:07:13;;;;;;;19.48;8.43;;;;;;;22.16;84.20;101165.00;5090586;56;1140857;-71
2023/10/02 13:12:18;;;;;;;29.98;16.65;;;;;;;22.09;83.96;101160.35;5099331;56;1140881;-71
2023/10/02 13:17:24;;;;;;;22.80;10.32;;;;;;;22.08;85.90;101153.28;5119570;56;1143037;-72
2023/10/02 13:22:30;;;;;;;18.35;9.13;;;;;;;22.07;84.64;101162.89;5071399;56;1142983;-70
2023/10/02 13:27:36;;;;;;;21.10;8.68;;;;;;;22.04;85.72;101148.42;5086980;56;1141146;-70
2023/10/02 13:32:42;;;;;;;18.82;8.85;;;;;;;22.09;86.87;101147.39;5028884;56;1141143;-73
2023/10/02 13:37:47;;;;;;;22.22;7.92;;;;;;;22.08;86.27;101149.75;4909492;57;1141114;-72
2023/10/02 13:42:54;;;;;;;24.37;8.65;;;;;;;22.03;86.25;101150.27;4981803;56;1140984;-73
2023/10/02 13:47:58;;;;;;;17.95;9.00;;;;;;;;;;4990595;57;1140856;-71
2023/10/02 13:53:05;;;;;;;27.72;9.52;;;;;;;21.98;86.77;101141.03;5045175;57;819942;-72
2023/10/02 13:58:11;;;;;;;17.92;8.80;;;;;;;21.96;87.66;101134.98;5001574;57;1138617;-72
2023/10/02 14:03:16;;;;;;;18.30;8.73;;;;;;;21.95;88.04;101128.77;5089510;55;1140993;-72
2023/10/02 14:08:22;;;;;;;15.30;7.42;;;;;;;21.94;88.48;101121.69;5096054;56;1141050;-71
2023/10/02 14:13:28;;;;;;;21.23;9.88;;;;;;;21.93;88.65;101125.41;5109949;56;1140765;-71
2023/10/02 14:18:40;;;;;;;25.03;12.93;;;;;;;21.94;89.29;101114.13;5093679;55;1140955;-72
2023/10/02 14:23:44;;;;;;;47.58;26.17;;;;;;;21.96;89.39;101108.89;5064996;56;1143032;-73
2023/10/02 14:28:50;;;;;;;15.72;8.95;;;;;;;21.98;89.64;101103.33;5133473;56;1142910;-72
2023/10/02 14:33:56;;;;;;;42.90;20.37;;;;;;;21.99;89.54;101100.97;5053923;56;1140974;-72
2023/10/02 14:39:03;;;;;;;23.65;10.13;;;;;;;22.04;89.99;101099.42;5112807;56;1143089;-71
2023/10/02 14:44:10;;;;;;;22.67;9.13;;;;;;;22.07;90.36;101092.34;5142558;56;1143133;-70
2023/10/02 14:49:16;;;;;;;18.48;7.94;;;;;;;22.10;89.59;101089.29;5107387;56;1140971;-72
2023/10/02 14:54:22;;;;;;;19.55;9.18;;;;;;;22.13;89.54;101082.70;5106275;55;1140758;-72
2023/10/02 14:59:29;;;;;;;22.27;8.85;;;;;;;22.16;89.88;101081.48;5063574;57;1140819;-71
2023/10/02 15:04:37;;;;;;;20.82;8.45;;;;;;;22.16;89.49;101078.28;4946160;56;1140872;-71
2023/10/02 15:09:43;;;;;;;29.67;10.67;;;;;;;22.20;89.66;101076.07;5004939;56;1140712;-72
2023/10/02 15:14:49;;;;;;;22.73;9.98;;;;;;;22.26;89.92;101072.66;4991772;57;1142889;-71
2023/10/02 15:19:55;;;;;;;22.70;10.03;;;;;;;22.29;89.79;101061.52;5098272;56;1141004;-70
2023/10/02 15:25:00;;;;;;;27.70;10.43;;;;;;;22.29;89.87;101063.71;5074242;57;1143019;-72
2023/10/02 15:30:10;;;;;;;34.35;12.43;;;;;;;22.31;90.24;101067.03;5063633;56;1142867;-72
2023/10/02 15:35:16;;;;;;;29.25;9.80;;;;;;;22.34;90.67;101058.59;5056142;56;1143037;-71
2023/10/02 15:40:23;;;;;;;28.27;11.83;;;;;;;22.53;91.75;101061.28;4914294;58;1140810;-75
2023/10/02 15:45:28;;;;;;;22.10;11.33;;;;;;;23.35;92.28;101055.82;5000146;55;1143194;-74
2023/10/02 15:50:34;;;;;;;26.48;10.82;;;;;;;23.93;89.28;101064.80;5066703;56;1142773;-72
2023/10/02 15:55:40;;;;;;;21.10;9.80;;;;;;;23.78;86.94;101074.31;5022786;56;1142951;-72
2023/10/02 16:00:49;;;;;;;23.25;10.50;;;;;;;23.45;86.68;101073.90;5079498;56;1140948;-73
2023/10/02 16:05:53;;;;;;;35.88;13.72;;;;;;;23.05;87.33;101073.91;5015988;56;1142922;-70
2023/10/02 16:10:58;;;;;;;35.28;11.10;;;;;;;22.72;88.04;101078.28;5014648;57;1142795;-71
2023/10/02 16:16:04;;;;;;;51.18;15.03;;;;;;;22.49;88.92;101087.44;4995655;57;1142655;-72
2023/10/02 16:21:13;;;;;;;33.53;12.78;;;;;;;22.23;89.42;101079.25;4995947;57;1142798;-73
2023/10/02 16:26:22;;;;;;;24.65;11.20;;;;;;;21.99;89.91;101072.69;5015324;57;1142818;-71
2023/10/02 16:31:28;;;;;;;34.45;11.00;;;;;;;21.82;90.71;101074.65;4996003;56;1142911;-71
2023/10/02 16:36:34;;;;;;;42.37;16.60;;;;;;;21.65;92.05;101075.77;4916587;57;1142701;-70
2023/10/02 16:41:39;;;;;;;88.00;32.75;;;;;;;21.51;93.21;101075.17;4935911;58;1142557;-72
2023/10/02 16:46:45;;;;;;;99.83;53.40;;;;;;;21.44;94.84;101079.06;5004980;56;1142745;-73
2023/10/02 16:51:51;;;;;;;130.30;81.17;;;;;;;21.40;96.14;101080.42;4995340;57;1142996;-73
2023/10/02 16:56:56;;;;;;;90.62;52.60;;;;;;;21.40;97.23;101088.49;5021008;57;1144938;-72
2023/10/02 17:02:02;;;;;;;91.60;42.50;;;;;;;21.33;97.74;101088.88;4950014;57;1142937;-72
2023/10/02 17:07:08;;;;;;;150.87;75.70;;;;;;;21.24;98.70;101081.84;4931282;57;1142824;-71
2023/10/02 17:12:13;;;;;;;81.42;34.33;;;;;;;21.12;99.41;101080.02;5033665;57;1144909;-72
2023/10/02 17:17:19;;;;;;;88.15;36.65;;;;;;;21.01;99.88;101073.67;5053279;56;1142894;-73
2023/10/02 17:22:24;;;;;;;80.76;39.62;;;;;;;21.02;100.00;101086.11;5006027;57;1142923;-73
2023/10/02 17:27:30;;;;;;;48.92;27.37;;;;;;;21.02;100.00;101083.42;4950708;57;1145070;-73
2023/10/02 17:32:36;;;;;;;54.83;30.82;;;;;;;21.02;100.00;101084.77;4998335;56;1145156;-72
2023/10/02 17:37:42;;;;;;;57.57;26.63;;;;;;;21.02;100.00;101082.91;4992434;56;1145408;-71
2023/10/02 17:42:48;;;;;;;50.43;20.17;;;;;;;20.98;100.00;101069.47;5046547;56;1145239;-71
2023/10/02 17:47:54;;;;;;;71.55;42.03;;;;;;;20.90;100.00;101077.58;5126665;56;1144912;-70
2023/10/02 17:52:59;;;;;;;59.40;32.60;;;;;;;20.83;100.00;101069.85;5092470;56;1144827;-73
2023/10/02 17:58:05;;;;;;;44.38;24.25;;;;;;;20.80;100.00;101082.80;5025431;56;1144996;-72
2023/10/02 18:03:13;;;;;;;30.35;13.43;;;;;;;20.79;100.00;101076.58;5030321;57;1144961;-73
2023/10/02 18:08:18;;;;;;;22.67;9.98;;;;;;;20.73;100.00;101075.09;4934968;57;1144952;-73
2023/10/02 18:13:24;;;;;;;18.55;9.38;;;;;;;20.59;100.00;101061.34;4938994;56;1143096;-70
2023/10/02 18:18:29;;;;;;;25.88;9.80;;;;;;;20.51;100.00;101057.31;5024428;56;1142788;-72
2023/10/02 18:23:37;;;;;;;17.55;9.60;;;;;;;20.45;100.00;101063.39;4991317;56;1142650;-70
2023/10/02 18:28:44;;;;;;;25.82;11.78;;;;;;;20.31;100.00;101050.11;5018010;56;1142757;-71
2023/10/02 18:33:49;;;;;;;22.40;10.03;;;;;;;20.29;100.00;101045.41;4981746;56;1144762;-74
2023/10/02 18:38:55;;;;;;;22.42;11.36;;;;;;;20.29;100.00;101045.91;5078408;56;1144911;-72
2023/10/02 18:44:02;;;;;;;27.55;14.75;;;;;;;20.29;100.00;101046.75;4993377;57;1145191;-73
2023/10/02 18:49:12;;;;;;;27.13;16.05;;;;;;;20.23;100.00;101045.23;5112299;55;1145189;-72
2023/10/02 18:54:18;;;;;;;22.73;12.37;;;;;;;20.14;100.00;101052.47;5139291;55;1145028;-71
2023/10/02 18:59:24;;;;;;;22.27;12.25;;;;;;;20.03;100.00;101042.03;4999734;56;1145102;-73
2023/10/02 19:04:30;;;;;;;29.00;14.50;;;;;;;19.99;100.00;101047.42;4949983;57;1145123;-73
2023/10/02 19:09:36;;;;;;;29.95;13.10;;;;;;;19.98;100.00;101048.43;4985174;57;1145025;-74
2023/10/02 19:14:41;;;;;;;27.13;12.50;;;;;;;19.89;100.00;101042.70;4944359;57;1145184;-72
2023/10/02 19:19:47;;;;;;;38.90;11.13;;;;;;;19.87;100.00;101036.15;4985089;56;1146977;-72
2023/10/02 19:24:52;;;;;;;27.67;9.10;;;;;;;19.85;100.00;101034.16;5038105;56;1144827;-72
2023/10/02 19:29:58;;;;;;;22.48;9.53;;;;;;;19.85;100.00;101034.16;4961678;57;1142774;-72
2023/10/02 19:35:04;;;;;;;18.85;9.50;;;;;;;19.82;100.00;101032.30;4962129;57;1143015;-71
2023/10/02 19:40:15;;;;;;;16.35;9.15;;;;;;;19.79;100.00;101019.21;5035541;56;1143248;-73
2023/10/02 19:45:19;;;;;;;19.70;8.80;;;;;;;19.81;100.00;101019.39;5008866;56;1143026;-71
2023/10/02 19:50:25;;;;;;;21.73;9.88;;;;;;;19.87;100.00;101011.98;4980729;56;1142771;-72
2023/10/02 19:55:31;;;;;;;16.00;9.38;;;;;;;19.93;100.00;100993.88;4934373;57;1147855;-74
2023/10/02 20:00:37;;;;;;;20.23;10.10;;;;;;;19.94;100.00;100997.41;4944560;57;1142958;-72
2023/10/02 20:05:42;;;;;;;24.43;11.73;;;;;;;19.90;100.00;100992.87;4984731;57;1145139;-73
2023/10/02 20:10:48;;;;;;;24.80;10.27;;;;;;;19.88;100.00;100985.48;4994274;57;1145033;-71
2023/10/02 20:15:55;;;;;;;21.62;8.53;;;;;;;19.80;100.00;100990.02;4976502;56;1145167;-73
2023/10/02 20:21:04;;;;;;;22.93;9.43;;;;;;;19.66;100.00;100987.50;5013491;57;1142886;-72
2023/10/02 20:26:11;;;;;;;32.13;10.15;;;;;;;19.57;100.00;100984.45;5038715;56;1142988;-72
2023/10/02 20:31:17;;;;;;;23.42;9.25;;;;;;;19.55;100.00;100978.45;5117692;55;1144968;-73
2023/10/02 20:36:23;;;;;;;24.82;9.13;;;;;;;19.51;100.00;100971.22;5013828;55;1142860;-71
2023/10/02 20:41:29;;;;;;;19.12;8.18;;;;;;;19.51;100.00;100967.70;5056728;56;1142803;-73
2023/10/02 20:46:34;;;;;;;15.95;7.58;;;;;;;19.48;100.00;100962.13;5058282;57;1142731;-72
2023/10/02 20:51:43;;;;;;;22.33;12.43;;;;;;;19.45;100.00;100951.72;5021128;57;1142970;-71
2023/10/02 20:56:48;;;;;;;18.13;7.90;;;;;;;19.40;100.00;100950.02;4974499;57;1144924;-72
2023/10/02 21:01:54;;;;;;;16.70;7.27;;;;;;;19.34;100.00;100945.34;5036524;56;1143019;-70
2023/10/02 21:07:00;;;;;;;17.90;8.70;;;;;;;19.28;100.00;100940.12;4994838;57;1142964;-72
2023/10/02 21:12:06;;;;;;;20.70;6.60;;;;;;;19.24;100.00;100937.95;4943652;57;1142964;-73
2023/10/02 21:17:11;;;;;;;15.95;6.70;;;;;;;19.21;100.00;100936.94;4944137;57;1142991;-71
2023/10/02 21:22:17;;;;;;;11.38;6.97;;;;;;;19.18;100.00;100941.28;4969864;57;1143054;-73
2023/10/02 21:27:23;;;;;;;20.20;6.65;;;;;;;19.17;100.00;100943.62;4947888;57;1143021;-71
2023/10/02 21:32:29;;;;;;;20.60;6.28;;;;;;;19.15;100.00;100938.92;4997074;56;1143142;-73
2023/10/02 21:37:35;;;;;;;11.68;6.17;;;;;;;19.10;100.00;100933.20;5015138;56;1142937;-72
2023/10/02 21:42:41;;;;;;;12.95;6.28;;;;;;;19.07;100.00;100930.88;5024601;56;1142820;-72
2023/10/02 21:47:47;;;;;;;14.75;5.90;;;;;;;19.06;100.00;100929.20;4996279;57;1142913;-71
2023/10/02 21:52:53;;;;;;;16.25;6.33;;;;;;;19.05;100.00;100928.86;5040234;57;1142698;-72
2023/10/02 21:57:58;;;;;;;12.70;6.37;;;;;;;18.99;100.00;100930.34;5020052;56;1142704;-71
2023/10/02 22:03:06;;;;;;;16.02;5.87;;;;;;;18.99;100.00;100935.70;5020644;57;1142971;-71
2023/10/02 22:08:12;;;;;;;16.57;6.37;;;;;;;18.98;100.00;100935.36;5009416;56;1143148;-71
2023/10/02 22:13:17;;;;;;;13.10;6.45;;;;;;;18.94;100.00;100927.33;4938281;57;1143069;-72
2023/10/02 22:18:24;;;;;;;17.82;6.35;;;;;;;18.93;100.00;100922.97;4894273;58;1143225;-72
2023/10/02 22:23:33;;;;;;;13.65;6.33;;;;;;;18.94;100.00;100912.06;5016057;57;1143013;-72
2023/10/02 22:28:37;;;;;;;13.08;5.95;;;;;;;18.97;100.00;100907.72;4937366;57;1142903;-72
2023/10/02 22:33:46;;;;;;;13.57;6.47;;;;;;;18.96;100.00;100909.22;4911301;58;1143209;-73
2023/10/02 22:38:51;;;;;;;13.10;6.95;;;;;;;18.96;100.00;100906.03;4959334;57;1143017;-72
2023/10/02 22:43:57;;;;;;;19.37;7.47;;;;;;;18.94;100.00;100897.31;4934492;58;1142816;-72
2023/10/02 22:49:03;;;;;;;10.50;6.05;;;;;;;18.90;100.00;100890.63;4988201;56;1142927;-72
2023/10/02 22:54:08;;;;;;;19.37;6.53;;;;;;;18.87;100.00;100886.92;4995155;57;1142753;-72
2023/10/02 22:59:14;;;;;;;17.48;6.83;;;;;;;18.90;100.00;100883.09;5015355;57;1142799;-72
2023/10/02 23:04:20;;;;;;;12.45;6.67;;;;;;;18.89;100.00;100890.29;4995731;58;1142783;-73
2023/10/02 23:09:26;;;;;;;13.38;6.05;;;;;;;18.86;100.00;100887.09;5026869;56;1142545;-71
2023/10/02 23:14:32;;;;;;;13.50;6.47;;;;;;;18.76;100.00;100886.40;5123155;56;1142982;-72
2023/10/02 23:19:40;;;;;;;13.80;6.65;;;;;;;18.68;100.00;100883.67;5110044;56;1142752;-71
2023/10/02 23:24:45;;;;;;;15.68;7.08;;;;;;;18.62;100.00;100878.48;5109839;56;1142695;-71
2023/10/02 23:29:50;;;;;;;14.53;6.70;;;;;;;18.56;100.00;100875.91;5027357;56;1142979;-72
2023/10/02 23:34:56;;;;;;;16.45;6.33;;;;;;;18.50;100.00;100873.03;5033861;57;1142767;-72
2023/10/02 23:40:11;;;;;;;17.27;7.55;;;;;;;18.47;100.00;100872.04;5096617;55;1142951;-71